Airfield :
LOGIN :

Register | Disclaimer

   EN    FR    IT 

 










Legend :    VFR   Marginal VFR   IFR   Intensive IFR   Very Intensive IFR
Visi :
Ceiling :
>= 8 km
>= 3000ft
5 to 8 km
1000 to 3000 ft
1500m to 5 km
500 to 1000 ft
800 to 1500m
200 to 500 ft
< 800m
< 200 ft
Symbols :   Thunderstorms  Fog  Heavy snow  Heavy precipitations  Wind > 20 kt
SIGMETs :     Misc.  Thunderstorms  Icing  Turbulence  Mountain Waves  Volcanic Ashes






- Airport Elevation : 286 ft
- IATA code : FFD


EGVA - RAF Fairford

CURRENT METAR :
  • 201416Z AUTO 03007KT 9999 SCT023 OVC055 11/06 A2988 RMK AO2 SLP124 $

EXPIRED METARs :
  • 201356Z AUTO 02010KT 9999 OVC023 11/06 A2988 RMK AO2 OVC V BKN SLP124 T01100059 $
  • 201331Z AUTO 02010KT 9999 BKN026 OVC055 12/06 A2987 RMK AO2 CIG 026V055 BKN V SCT CIG 023 RWY09 SLP120 $
  • 201321Z AUTO 01009KT 9999 SCT024 BKN055 12/06 A2987 RMK AO2 SLP120 $
  • 201311Z AUTO 36009KT 9999 BKN023 11/06 A2987 RMK AO2 SLP120 $
  • 201256Z AUTO 02010KT 9999 SCT022 SCT027 12/06 A2987 RMK AO2 SLP120 T01150058 $
  • 201246Z AUTO 02011KT 9999 SCT021 SCT027 11/06 A2987 RMK AO2 SLP121 $
  • 201216Z AUTO 01007KT 9999 SCT017 BKN055 10/06 A2986 RMK AO2 SLP117 $
  • 201156Z AUTO 02008KT 9999 OVC017 10/06 A2987 RMK AO2 OVC V BKN SLP120 60000 T01020063 10103 20046 51012 $

Expired Forecast.



MET'MAP, your aeronautical weather chart ! - Copyright ORBIFLY December 2007 - Disclaimer

ORBIFLY MET'MAP TEAM :

Programming & Development : Alexandra Zaïnal
Concept & Development : Baudouin d'Aumeries
Co-Development & Prog : Marc-Olivier Méhu
Technical & hardware support : Manuel Goepfert

Contact : metmap@orbifly.com




SOURCES & CREDITS :

   NOAA